sensor_id;sensor_type;location;lat;lon;timestamp;pressure;altitude;pressure_sealevel;temperature;humidity
12536;BME280;6334;48.696;2.114;2024-02-21T00:00:12;100918.72;;;7.72;91.15
12536;BME280;6334;48.696;2.114;2024-02-21T00:02:42;100914.09;;;7.98;90.29
12536;BME280;6334;48.696;2.114;2024-02-21T00:05:13;100903.62;;;7.84;90.83
12536;BME280;6334;48.696;2.114;2024-02-21T00:07:43;100901.45;;;8.23;89.79
12536;BME280;6334;48.696;2.114;2024-02-21T00:10:14;100896.81;;;8.02;89.95
12536;BME280;6334;48.696;2.114;2024-02-21T00:12:44;100889.66;;;8.13;89.83
12536;BME280;6334;48.696;2.114;2024-02-21T00:15:15;100871.63;;;8.03;89.82
12536;BME280;6334;48.696;2.114;2024-02-21T00:17:45;100878.38;;;8.11;89.63
12536;BME280;6334;48.696;2.114;2024-02-21T00:20:16;100871.09;;;7.93;90.38
12536;BME280;6334;48.696;2.114;2024-02-21T00:22:46;100869.23;;;7.89;90.48
12536;BME280;6334;48.696;2.114;2024-02-21T00:25:17;100858.59;;;7.80;91.33
12536;BME280;6334;48.696;2.114;2024-02-21T00:27:47;100864.52;;;7.97;90.29
12536;BME280;6334;48.696;2.114;2024-02-21T00:30:18;100870.23;;;8.04;91.04
12536;BME280;6334;48.696;2.114;2024-02-21T00:32:48;100874.50;;;7.92;91.19
12536;BME280;6334;48.696;2.114;2024-02-21T00:35:19;100856.50;;;8.29;90.01
12536;BME280;6334;48.696;2.114;2024-02-21T00:37:49;100846.66;;;8.37;89.43
12536;BME280;6334;48.696;2.114;2024-02-21T00:40:19;100843.34;;;8.37;88.37
12536;BME280;6334;48.696;2.114;2024-02-21T00:42:50;100853.41;;;8.24;89.03
12536;BME280;6334;48.696;2.114;2024-02-21T00:45:20;100846.94;;;8.02;89.61
12536;BME280;6334;48.696;2.114;2024-02-21T00:47:51;100842.72;;;7.97;90.19
12536;BME280;6334;48.696;2.114;2024-02-21T00:50:21;100839.78;;;7.85;90.73
12536;BME280;6334;48.696;2.114;2024-02-21T00:52:52;100829.49;;;7.98;89.84
12536;BME280;6334;48.696;2.114;2024-02-21T00:55:22;100827.34;;;7.98;89.42
12536;BME280;6334;48.696;2.114;2024-02-21T00:57:53;100823.70;;;7.94;89.37
12536;BME280;6334;48.696;2.114;2024-02-21T01:00:23;100813.48;;;7.97;89.66
12536;BME280;6334;48.696;2.114;2024-02-21T01:02:53;100811.05;;;8.10;88.54
12536;BME280;6334;48.696;2.114;2024-02-21T01:05:24;100800.83;;;8.08;88.24
12536;BME280;6334;48.696;2.114;2024-02-21T01:07:54;100805.08;;;7.80;89.45
12536;BME280;6334;48.696;2.114;2024-02-21T01:10:25;100802.13;;;7.68;89.40
12536;BME280;6334;48.696;2.114;2024-02-21T01:12:55;100784.52;;;7.71;89.52
12536;BME280;6334;48.696;2.114;2024-02-21T01:15:26;100786.48;;;7.55;90.53
12536;BME280;6334;48.696;2.114;2024-02-21T01:17:56;100771.27;;;7.78;89.47
12536;BME280;6334;48.696;2.114;2024-02-21T01:20:27;100755.65;;;8.07;87.70
12536;BME280;6334;48.696;2.114;2024-02-21T01:22:57;100750.59;;;7.90;88.36
12536;BME280;6334;48.696;2.114;2024-02-21T01:25:28;100765.21;;;7.85;88.35
12536;BME280;6334;48.696;2.114;2024-02-21T01:27:58;100791.00;;;7.95;88.35
12536;BME280;6334;48.696;2.114;2024-02-21T01:30:28;100795.58;;;8.11;88.13
12536;BME280;6334;48.696;2.114;2024-02-21T01:32:59;100783.94;;;7.71;89.02
12536;BME280;6334;48.696;2.114;2024-02-21T01:35:29;100784.77;;;7.70;89.48
12536;BME280;6334;48.696;2.114;2024-02-21T01:38:00;100783.41;;;7.60;89.91
12536;BME280;6334;48.696;2.114;2024-02-21T01:40:30;100788.19;;;7.59;89.68
12536;BME280;6334;48.696;2.114;2024-02-21T01:43:01;100791.25;;;7.87;89.07
12536;BME280;6334;48.696;2.114;2024-02-21T01:45:30;100790.38;;;8.13;88.79
12536;BME280;6334;48.696;2.114;2024-02-21T01:48:01;100788.55;;;8.13;88.24
12536;BME280;6334;48.696;2.114;2024-02-21T01:50:31;100779.98;;;8.35;87.59
12536;BME280;6334;48.696;2.114;2024-02-21T01:53:02;100774.53;;;8.21;87.02
12536;BME280;6334;48.696;2.114;2024-02-21T01:55:32;100772.73;;;8.16;87.47
12536;BME280;6334;48.696;2.114;2024-02-21T01:58:03;100765.81;;;7.95;89.07
12536;BME280;6334;48.696;2.114;2024-02-21T02:00:33;100752.89;;;7.88;89.08
12536;BME280;6334;48.696;2.114;2024-02-21T02:03:04;100731.02;;;8.05;88.13
12536;BME280;6334;48.696;2.114;2024-02-21T02:05:34;100713.57;;;7.98;88.21
12536;BME280;6334;48.696;2.114;2024-02-21T02:08:04;100712.70;;;7.77;89.13
12536;BME280;6334;48.696;2.114;2024-02-21T02:10:34;100719.45;;;7.98;87.51
12536;BME280;6334;48.696;2.114;2024-02-21T02:13:04;100721.90;;;7.95;88.04
12536;BME280;6334;48.696;2.114;2024-02-21T02:15:41;100725.89;;;8.13;88.22
12536;BME280;6334;48.696;2.114;2024-02-21T02:18:11;100701.42;;;8.02;88.42
12536;BME280;6334;48.696;2.114;2024-02-21T02:20:41;100686.83;;;8.10;87.24
12536;BME280;6334;48.696;2.114;2024-02-21T02:23:24;100711.44;;;7.76;89.07
12536;BME280;6334;48.696;2.114;2024-02-21T02:25:53;100718.26;;;8.04;88.67
12536;BME280;6334;48.696;2.114;2024-02-21T02:28:23;100697.02;;;8.00;88.75
12536;BME280;6334;48.696;2.114;2024-02-21T02:30:54;100700.14;;;7.99;89.01
12536;BME280;6334;48.696;2.114;2024-02-21T02:33:26;100700.67;;;8.12;88.81
12536;BME280;6334;48.696;2.114;2024-02-21T02:35:56;100693.03;;;8.40;87.58
12536;BME280;6334;48.696;2.114;2024-02-21T02:38:26;100693.02;;;8.18;88.21
12536;BME280;6334;48.696;2.114;2024-02-21T02:40:57;100685.95;;;8.24;88.32
12536;BME280;6334;48.696;2.114;2024-02-21T02:43:27;100669.72;;;7.97;88.86
12536;BME280;6334;48.696;2.114;2024-02-21T02:45:58;100677.46;;;8.00;88.96
12536;BME280;6334;48.696;2.114;2024-02-21T02:48:28;100672.27;;;8.36;87.84
12536;BME280;6334;48.696;2.114;2024-02-21T02:50:59;100665.90;;;7.85;89.49
12536;BME280;6334;48.696;2.114;2024-02-21T02:53:29;100669.23;;;8.08;88.23
12536;BME280;6334;48.696;2.114;2024-02-21T02:56:00;100669.03;;;8.14;88.95
12536;BME280;6334;48.696;2.114;2024-02-21T02:58:30;100654.05;;;7.78;89.77
12536;BME280;6334;48.696;2.114;2024-02-21T03:01:01;100654.19;;;8.00;89.65
12536;BME280;6334;48.696;2.114;2024-02-21T03:03:31;100637.23;;;8.07;88.85
12536;BME280;6334;48.696;2.114;2024-02-21T03:06:01;100631.84;;;7.95;89.33
12536;BME280;6334;48.696;2.114;2024-02-21T03:08:32;100610.89;;;8.05;88.75
12536;BME280;6334;48.696;2.114;2024-02-21T03:11:02;100605.89;;;8.27;87.28
12536;BME280;6334;48.696;2.114;2024-02-21T03:13:33;100603.06;;;8.27;88.03
12536;BME280;6334;48.696;2.114;2024-02-21T03:16:03;100602.39;;;8.25;87.45
12536;BME280;6334;48.696;2.114;2024-02-21T03:18:34;100591.31;;;8.04;87.65
12536;BME280;6334;48.696;2.114;2024-02-21T03:21:04;100590.91;;;8.04;88.67
12536;BME280;6334;48.696;2.114;2024-02-21T03:23:35;100588.98;;;8.46;86.79
12536;BME280;6334;48.696;2.114;2024-02-21T03:26:05;100579.02;;;8.25;86.76
12536;BME280;6334;48.696;2.114;2024-02-21T03:28:36;100567.23;;;7.94;87.99
12536;BME280;6334;48.696;2.114;2024-02-21T03:31:06;100556.03;;;8.20;86.99
12536;BME280;6334;48.696;2.114;2024-02-21T03:33:36;100547.14;;;8.18;87.39
12536;BME280;6334;48.696;2.114;2024-02-21T03:36:12;100538.49;;;7.96;87.39
12536;BME280;6334;48.696;2.114;2024-02-21T03:38:37;100536.00;;;8.10;87.23
12536;BME280;6334;48.696;2.114;2024-02-21T03:41:08;100546.50;;;8.22;87.42
12536;BME280;6334;48.696;2.114;2024-02-21T03:43:38;100560.64;;;8.00;87.10
12536;BME280;6334;48.696;2.114;2024-02-21T03:46:09;100569.72;;;7.97;88.12
12536;BME280;6334;48.696;2.114;2024-02-21T03:48:39;100562.08;;;7.44;90.81
12536;BME280;6334;48.696;2.114;2024-02-21T03:51:10;100557.19;;;8.17;87.60
12536;BME280;6334;48.696;2.114;2024-02-21T03:53:40;100553.59;;;8.31;86.87
12536;BME280;6334;48.696;2.114;2024-02-21T03:56:11;100559.80;;;8.24;86.70
12536;BME280;6334;48.696;2.114;2024-02-21T03:58:41;100566.80;;;8.17;88.15
12536;BME280;6334;48.696;2.114;2024-02-21T04:01:11;100567.52;;;8.39;86.84
12536;BME280;6334;48.696;2.114;2024-02-21T04:03:43;100549.95;;;8.31;86.92
12536;BME280;6334;48.696;2.114;2024-02-21T04:06:12;100564.27;;;8.11;87.69
12536;BME280;6334;48.696;2.114;2024-02-21T04:08:43;100568.17;;;8.14;87.96
12536;BME280;6334;48.696;2.114;2024-02-21T04:11:13;100568.95;;;7.84;89.33
12536;BME280;6334;48.696;2.114;2024-02-21T04:13:44;100558.60;;;8.09;88.93
12536;BME280;6334;48.696;2.114;2024-02-21T04:16:14;100544.97;;;8.12;88.28
12536;BME280;6334;48.696;2.114;2024-02-21T04:18:45;100537.28;;;8.05;88.56
12536;BME280;6334;48.696;2.114;2024-02-21T04:21:16;100525.74;;;8.26;87.99
12536;BME280;6334;48.696;2.114;2024-02-21T04:23:47;100532.77;;;8.40;87.13
12536;BME280;6334;48.696;2.114;2024-02-21T04:26:17;100541.41;;;8.11;88.28
12536;BME280;6334;48.696;2.114;2024-02-21T04:28:48;100530.06;;;8.16;88.13
12536;BME280;6334;48.696;2.114;2024-02-21T04:31:18;100533.93;;;8.10;88.02
12536;BME280;6334;48.696;2.114;2024-02-21T04:33:48;100532.78;;;8.11;88.38
12536;BME280;6334;48.696;2.114;2024-02-21T04:36:19;100529.66;;;8.02;88.36
12536;BME280;6334;48.696;2.114;2024-02-21T04:38:48;100541.47;;;7.97;89.35
12536;BME280;6334;48.696;2.114;2024-02-21T04:41:19;100538.80;;;8.21;88.62
12536;BME280;6334;48.696;2.114;2024-02-21T04:43:49;100542.50;;;7.92;89.29
12536;BME280;6334;48.696;2.114;2024-02-21T04:46:20;100543.17;;;8.18;88.69
12536;BME280;6334;48.696;2.114;2024-02-21T04:48:50;100529.84;;;7.95;89.52
12536;BME280;6334;48.696;2.114;2024-02-21T04:51:21;100530.28;;;7.97;88.71
12536;BME280;6334;48.696;2.114;2024-02-21T04:53:51;100526.64;;;7.83;89.76
12536;BME280;6334;48.696;2.114;2024-02-21T04:56:22;100519.48;;;7.91;89.63
12536;BME280;6334;48.696;2.114;2024-02-21T04:58:52;100511.11;;;7.93;89.02
12536;BME280;6334;48.696;2.114;2024-02-21T05:01:23;100509.42;;;8.01;89.16
12536;BME280;6334;48.696;2.114;2024-02-21T05:03:53;100505.53;;;7.45;91.54
12536;BME280;6334;48.696;2.114;2024-02-21T05:06:23;100483.88;;;7.48;90.71
12536;BME280;6334;48.696;2.114;2024-02-21T05:08:54;100488.66;;;7.64;90.26
12536;BME280;6334;48.696;2.114;2024-02-21T05:11:24;100486.74;;;7.65;89.98
12536;BME280;6334;48.696;2.114;2024-02-21T05:13:54;100484.14;;;7.86;89.20
12536;BME280;6334;48.696;2.114;2024-02-21T05:16:24;100474.94;;;7.71;90.16
12536;BME280;6334;48.696;2.114;2024-02-21T05:18:55;100470.25;;;7.52;90.46
12536;BME280;6334;48.696;2.114;2024-02-21T05:21:25;100470.55;;;7.60;90.57
12536;BME280;6334;48.696;2.114;2024-02-21T05:23:56;100470.66;;;7.64;91.39
12536;BME280;6334;48.696;2.114;2024-02-21T05:26:28;100471.79;;;7.60;90.91
12536;BME280;6334;48.696;2.114;2024-02-21T05:28:57;100468.78;;;7.64;90.58
12536;BME280;6334;48.696;2.114;2024-02-21T05:31:29;100473.59;;;7.53;91.19
12536;BME280;6334;48.696;2.114;2024-02-21T05:33:58;100466.23;;;7.81;89.90
12536;BME280;6334;48.696;2.114;2024-02-21T05:36:28;100455.16;;;7.73;90.19
12536;BME280;6334;48.696;2.114;2024-02-21T05:38:58;100454.82;;;7.59;90.71
12536;BME280;6334;48.696;2.114;2024-02-21T05:41:29;100435.88;;;7.64;90.65
12536;BME280;6334;48.696;2.114;2024-02-21T05:44:00;100463.91;;;7.44;90.73
12536;BME280;6334;48.696;2.114;2024-02-21T05:46:30;100458.27;;;7.92;89.13
12536;BME280;6334;48.696;2.114;2024-02-21T05:49:00;100461.06;;;7.74;90.36
12536;BME280;6334;48.696;2.114;2024-02-21T05:51:34;100450.70;;;8.02;89.25
12536;BME280;6334;48.696;2.114;2024-02-21T05:54:04;100448.77;;;7.71;89.93
12536;BME280;6334;48.696;2.114;2024-02-21T05:56:35;100423.14;;;7.75;89.76
12536;BME280;6334;48.696;2.114;2024-02-21T05:59:05;100431.57;;;7.92;89.36
12536;BME280;6334;48.696;2.114;2024-02-21T06:01:35;100437.17;;;8.17;88.37
12536;BME280;6334;48.696;2.114;2024-02-21T06:04:06;100431.66;;;7.89;89.37
12536;BME280;6334;48.696;2.114;2024-02-21T06:06:36;100426.06;;;8.01;88.64
12536;BME280;6334;48.696;2.114;2024-02-21T06:09:07;100428.70;;;7.67;90.74
12536;BME280;6334;48.696;2.114;2024-02-21T06:11:37;100422.84;;;7.68;90.12
12536;BME280;6334;48.696;2.114;2024-02-21T06:14:08;100425.11;;;7.64;89.93
12536;BME280;6334;48.696;2.114;2024-02-21T06:16:38;100408.96;;;7.74;90.02
12536;BME280;6334;48.696;2.114;2024-02-21T06:19:08;100386.52;;;7.72;89.81
12536;BME280;6334;48.696;2.114;2024-02-21T06:21:38;100382.31;;;7.45;90.89
12536;BME280;6334;48.696;2.114;2024-02-21T06:24:09;100377.62;;;7.53;90.76
12536;BME280;6334;48.696;2.114;2024-02-21T06:26:40;100374.81;;;7.68;90.48
12536;BME280;6334;48.696;2.114;2024-02-21T06:29:10;100389.89;;;7.71;89.40
12536;BME280;6334;48.696;2.114;2024-02-21T06:31:40;100375.70;;;7.26;90.63
12536;BME280;6334;48.696;2.114;2024-02-21T06:34:11;100402.74;;;7.35;91.20
12536;BME280;6334;48.696;2.114;2024-02-21T06:36:41;100374.16;;;7.71;89.54
12536;BME280;6334;48.696;2.114;2024-02-21T06:39:12;100376.61;;;7.36;90.86
12536;BME280;6334;48.696;2.114;2024-02-21T06:41:42;100366.88;;;7.56;89.60
12536;BME280;6334;48.696;2.114;2024-02-21T06:44:12;100376.02;;;7.48;90.49
12536;BME280;6334;48.696;2.114;2024-02-21T06:46:43;100396.63;;;7.15;91.74
12536;BME280;6334;48.696;2.114;2024-02-21T06:49:13;100381.42;;;7.54;90.28
12536;BME280;6334;48.696;2.114;2024-02-21T06:51:44;100378.63;;;7.87;88.61
12536;BME280;6334;48.696;2.114;2024-02-21T06:54:14;100374.38;;;7.50;89.71
12536;BME280;6334;48.696;2.114;2024-02-21T06:56:45;100359.65;;;7.69;88.63
12536;BME280;6334;48.696;2.114;2024-02-21T06:59:15;100361.12;;;7.34;90.30
12536;BME280;6334;48.696;2.114;2024-02-21T07:01:49;100360.84;;;7.74;89.32
12536;BME280;6334;48.696;2.114;2024-02-21T07:04:19;100355.45;;;7.58;90.41
12536;BME280;6334;48.696;2.114;2024-02-21T07:06:50;100358.66;;;7.66;89.17
12536;BME280;6334;48.696;2.114;2024-02-21T07:09:20;100349.96;;;7.52;89.85
12536;BME280;6334;48.696;2.114;2024-02-21T07:11:51;100349.91;;;7.75;89.05
12536;BME280;6334;48.696;2.114;2024-02-21T07:14:21;100351.41;;;7.77;89.49
12536;BME280;6334;48.696;2.114;2024-02-21T07:16:51;100341.70;;;7.70;89.07
12536;BME280;6334;48.696;2.114;2024-02-21T07:19:21;100331.69;;;7.72;89.30
12536;BME280;6334;48.696;2.114;2024-02-21T07:21:51;100341.86;;;7.70;89.42
12536;BME280;6334;48.696;2.114;2024-02-21T07:24:22;100342.77;;;7.87;88.68
12536;BME280;6334;48.696;2.114;2024-02-21T07:26:52;100342.65;;;7.77;88.80
12536;BME280;6334;48.696;2.114;2024-02-21T07:29:23;100346.52;;;7.92;90.19
12536;BME280;6334;48.696;2.114;2024-02-21T07:31:53;100354.41;;;7.82;90.16
12536;BME280;6334;48.696;2.114;2024-02-21T07:34:24;100364.08;;;7.59;90.58
12536;BME280;6334;48.696;2.114;2024-02-21T07:36:55;100365.86;;;7.52;90.90
12536;BME280;6334;48.696;2.114;2024-02-21T07:39:25;100367.34;;;7.86;90.15
12536;BME280;6334;48.696;2.114;2024-02-21T07:41:55;100367.45;;;7.90;89.48
12536;BME280;6334;48.696;2.114;2024-02-21T07:44:26;100359.23;;;8.02;89.27
12536;BME280;6334;48.696;2.114;2024-02-21T07:46:56;100353.61;;;8.12;89.15
12536;BME280;6334;48.696;2.114;2024-02-21T07:49:26;100345.71;;;7.82;90.35
12536;BME280;6334;48.696;2.114;2024-02-21T07:51:57;100347.69;;;7.96;89.41
12536;BME280;6334;48.696;2.114;2024-02-21T07:54:27;100334.64;;;8.10;89.34
12536;BME280;6334;48.696;2.114;2024-02-21T07:56:58;100332.83;;;7.91;90.38
12536;BME280;6334;48.696;2.114;2024-02-21T07:59:29;100325.44;;;7.81;90.79
12536;BME280;6334;48.696;2.114;2024-02-21T08:01:59;100322.86;;;8.03;90.11
12536;BME280;6334;48.696;2.114;2024-02-21T08:04:29;100324.53;;;8.14;89.54
12536;BME280;6334;48.696;2.114;2024-02-21T08:07:00;100320.60;;;7.98;90.57
12536;BME280;6334;48.696;2.114;2024-02-21T08:09:30;100311.98;;;8.03;90.67
12536;BME280;6334;48.696;2.114;2024-02-21T08:12:01;100309.20;;;8.13;90.23
12536;BME280;6334;48.696;2.114;2024-02-21T08:14:31;100305.13;;;8.02;90.17
12536;BME280;6334;48.696;2.114;2024-02-21T08:17:01;100304.38;;;8.10;90.12
12536;BME280;6334;48.696;2.114;2024-02-21T08:19:32;100301.59;;;7.87;90.81
12536;BME280;6334;48.696;2.114;2024-02-21T08:22:02;100305.09;;;8.24;89.61
12536;BME280;6334;48.696;2.114;2024-02-21T08:24:33;100305.25;;;8.25;89.78
12536;BME280;6334;48.696;2.114;2024-02-21T08:27:03;100301.11;;;7.95;90.43
12536;BME280;6334;48.696;2.114;2024-02-21T08:29:33;100296.55;;;8.28;89.67
12536;BME280;6334;48.696;2.114;2024-02-21T08:32:03;100284.97;;;8.01;90.55
12536;BME280;6334;48.696;2.114;2024-02-21T08:34:34;100290.76;;;7.93;90.65
12536;BME280;6334;48.696;2.114;2024-02-21T08:37:04;100274.98;;;8.25;89.79
12536;BME280;6334;48.696;2.114;2024-02-21T08:39:35;100270.58;;;8.08;90.12
12536;BME280;6334;48.696;2.114;2024-02-21T08:42:05;100269.97;;;8.41;88.81
12536;BME280;6334;48.696;2.114;2024-02-21T08:44:36;100260.41;;;8.15;89.59
12536;BME280;6334;48.696;2.114;2024-02-21T08:47:06;100263.94;;;8.43;89.31
12536;BME280;6334;48.696;2.114;2024-02-21T08:49:37;100266.67;;;8.55;88.02
12536;BME280;6334;48.696;2.114;2024-02-21T08:52:07;100257.19;;;8.40;89.02
12536;BME280;6334;48.696;2.114;2024-02-21T08:54:37;100248.70;;;8.06;90.20
12536;BME280;6334;48.696;2.114;2024-02-21T08:57:07;100251.09;;;8.51;88.53
12536;BME280;6334;48.696;2.114;2024-02-21T08:59:37;100245.38;;;8.46;88.40
12536;BME280;6334;48.696;2.114;2024-02-21T09:02:08;100239.66;;;8.45;88.62
12536;BME280;6334;48.696;2.114;2024-02-21T09:04:38;100241.63;;;8.55;88.97
12536;BME280;6334;48.696;2.114;2024-02-21T09:07:09;100242.45;;;8.59;88.01
12536;BME280;6334;48.696;2.114;2024-02-21T09:09:39;100237.50;;;8.62;88.58
12536;BME280;6334;48.696;2.114;2024-02-21T09:12:10;100231.36;;;8.56;88.95
12536;BME280;6334;48.696;2.114;2024-02-21T09:14:40;100229.36;;;8.44;89.03
12536;BME280;6334;48.696;2.114;2024-02-21T09:17:11;100211.03;;;8.62;88.34
12536;BME280;6334;48.696;2.114;2024-02-21T09:19:41;100222.63;;;8.54;88.04
12536;BME280;6334;48.696;2.114;2024-02-21T09:22:12;100215.31;;;8.35;89.84
12536;BME280;6334;48.696;2.114;2024-02-21T09:24:42;100199.19;;;8.52;89.18
12536;BME280;6334;48.696;2.114;2024-02-21T09:27:13;100200.47;;;8.78;88.47
12536;BME280;6334;48.696;2.114;2024-02-21T09:29:43;100191.53;;;8.69;88.79
12536;BME280;6334;48.696;2.114;2024-02-21T09:32:14;100195.53;;;8.56;89.43
12536;BME280;6334;48.696;2.114;2024-02-21T09:34:44;100192.47;;;8.60;88.95
12536;BME280;6334;48.696;2.114;2024-02-21T09:37:14;100178.41;;;8.79;88.37
12536;BME280;6334;48.696;2.114;2024-02-21T09:39:45;100167.27;;;8.84;87.35
12536;BME280;6334;48.696;2.114;2024-02-21T09:42:15;100181.98;;;8.80;87.59
12536;BME280;6334;48.696;2.114;2024-02-21T09:44:46;100183.16;;;8.66;88.89
12536;BME280;6334;48.696;2.114;2024-02-21T09:47:19;100176.61;;;8.67;88.26
12536;BME280;6334;48.696;2.114;2024-02-21T09:49:49;100176.28;;;8.71;88.61
12536;BME280;6334;48.696;2.114;2024-02-21T09:52:20;100175.17;;;8.71;88.27
12536;BME280;6334;48.696;2.114;2024-02-21T09:54:50;100168.66;;;8.65;88.27
12536;BME280;6334;48.696;2.114;2024-02-21T09:57:21;100173.99;;;8.78;88.35
12536;BME280;6334;48.696;2.114;2024-02-21T09:59:51;100161.83;;;8.98;87.79
12536;BME280;6334;48.696;2.114;2024-02-21T10:02:21;100162.80;;;8.88;87.85
12536;BME280;6334;48.696;2.114;2024-02-21T10:04:51;100153.55;;;8.94;87.48
12536;BME280;6334;48.696;2.114;2024-02-21T10:07:22;100149.78;;;9.04;86.97
12536;BME280;6334;48.696;2.114;2024-02-21T10:10:01;100138.22;;;9.08;87.39
12536;BME280;6334;48.696;2.114;2024-02-21T10:12:31;100139.36;;;8.91;88.61
12536;BME280;6334;48.696;2.114;2024-02-21T10:15:04;100136.46;;;8.94;88.06
12536;BME280;6334;48.696;2.114;2024-02-21T10:17:35;100125.28;;;9.06;88.58
12536;BME280;6334;48.696;2.114;2024-02-21T10:20:08;100123.01;;;8.93;89.20
12536;BME280;6334;48.696;2.114;2024-02-21T10:22:38;100111.81;;;8.98;88.30
12536;BME280;6334;48.696;2.114;2024-02-21T10:25:09;100103.83;;;9.00;88.47
12536;BME280;6334;48.696;2.114;2024-02-21T10:27:39;100099.94;;;8.96;88.82
12536;BME280;6334;48.696;2.114;2024-02-21T10:30:13;100093.91;;;9.24;87.45
12536;BME280;6334;48.696;2.114;2024-02-21T10:32:54;100090.46;;;9.31;87.33
12536;BME280;6334;48.696;2.114;2024-02-21T10:35:27;100078.78;;;9.13;88.00
12536;BME280;6334;48.696;2.114;2024-02-21T10:37:57;100075.26;;;9.32;87.49
12536;BME280;6334;48.696;2.114;2024-02-21T10:40:30;100076.35;;;9.20;87.82
12536;BME280;6334;48.696;2.114;2024-02-21T10:43:00;100066.35;;;9.24;87.71
12536;BME280;6334;48.696;2.114;2024-02-21T10:45:31;100066.89;;;9.42;87.21
12536;BME280;6334;48.696;2.114;2024-02-21T10:48:12;100053.28;;;9.44;86.40
12536;BME280;6334;48.696;2.114;2024-02-21T10:50:57;100050.84;;;9.35;86.96
12536;BME280;6334;48.696;2.114;2024-02-21T10:58:49;100057.38;;;9.26;87.17
12536;BME280;6334;48.696;2.114;2024-02-21T11:01:20;100054.48;;;9.59;86.23
12536;BME280;6334;48.696;2.114;2024-02-21T11:03:52;100049.49;;;9.38;87.05
12536;BME280;6334;48.696;2.114;2024-02-21T11:06:21;100046.31;;;9.51;87.21
12536;BME280;6334;48.696;2.114;2024-02-21T11:11:38;100038.32;;;9.55;86.14
12536;BME280;6334;48.696;2.114;2024-02-21T11:14:17;100027.50;;;9.57;86.43
12536;BME280;6334;48.696;2.114;2024-02-21T11:16:42;100017.95;;;9.58;86.46
12536;BME280;6334;48.696;2.114;2024-02-21T11:19:28;100010.45;;;9.80;85.66
12536;BME280;6334;48.696;2.114;2024-02-21T11:21:57;100004.30;;;10.04;84.98
12536;BME280;6334;48.696;2.114;2024-02-21T11:24:28;99995.29;;;9.76;85.43
12536;BME280;6334;48.696;2.114;2024-02-21T11:27:11;99995.27;;;9.76;86.15
12536;BME280;6334;48.696;2.114;2024-02-21T11:29:45;99982.28;;;9.91;85.12
12536;BME280;6334;48.696;2.114;2024-02-21T11:32:15;99979.88;;;9.82;86.13
12536;BME280;6334;48.696;2.114;2024-02-21T11:37:29;99964.41;;;9.73;85.77
12536;BME280;6334;48.696;2.114;2024-02-21T11:40:02;99969.60;;;10.02;83.99
12536;BME280;6334;48.696;2.114;2024-02-21T11:42:32;99956.97;;;9.77;85.75
12536;BME280;6334;48.696;2.114;2024-02-21T11:45:02;99959.09;;;9.90;85.18
12536;BME280;6334;48.696;2.114;2024-02-21T11:47:32;99960.30;;;9.93;84.83
12536;BME280;6334;48.696;2.114;2024-02-21T11:50:02;99946.34;;;9.76;84.92
12536;BME280;6334;48.696;2.114;2024-02-21T11:52:32;99942.59;;;9.94;85.18
12536;BME280;6334;48.696;2.114;2024-02-21T11:55:02;99939.59;;;10.16;84.33
12536;BME280;6334;48.696;2.114;2024-02-21T11:57:32;99932.14;;;10.01;84.37
12536;BME280;6334;48.696;2.114;2024-02-21T12:00:19;99928.00;;;10.11;84.34
12536;BME280;6334;48.696;2.114;2024-02-21T12:02:41;99915.90;;;9.96;84.77
12536;BME280;6334;48.696;2.114;2024-02-21T12:05:10;99896.84;;;9.96;83.83
12536;BME280;6334;48.696;2.114;2024-02-21T12:07:41;99895.06;;;10.00;83.73
12536;BME280;6334;48.696;2.114;2024-02-21T12:10:11;99887.40;;;10.22;83.71
12536;BME280;6334;48.696;2.114;2024-02-21T12:12:42;99877.40;;;10.10;83.82
12536;BME280;6334;48.696;2.114;2024-02-21T12:15:12;99882.98;;;10.17;83.17
12536;BME280;6334;48.696;2.114;2024-02-21T12:17:43;99874.19;;;10.22;83.67
12536;BME280;6334;48.696;2.114;2024-02-21T12:20:14;99872.34;;;9.96;84.32
12536;BME280;6334;48.696;2.114;2024-02-21T12:22:43;99854.92;;;10.14;83.45
12536;BME280;6334;48.696;2.114;2024-02-21T12:25:16;99850.86;;;10.00;83.88
12536;BME280;6334;48.696;2.114;2024-02-21T12:27:46;99851.38;;;9.99;84.59
12536;BME280;6334;48.696;2.114;2024-02-21T12:30:16;99839.34;;;10.16;84.05
12536;BME280;6334;48.696;2.114;2024-02-21T12:32:47;99828.19;;;10.29;84.17
12536;BME280;6334;48.696;2.114;2024-02-21T12:35:17;99836.67;;;10.22;83.73
12536;BME280;6334;48.696;2.114;2024-02-21T12:37:48;99825.77;;;10.06;84.48
12536;BME280;6334;48.696;2.114;2024-02-21T12:40:18;99825.53;;;10.04;84.15
12536;BME280;6334;48.696;2.114;2024-02-21T12:42:48;99818.91;;;10.09;84.75
12536;BME280;6334;48.696;2.114;2024-02-21T12:45:19;99802.36;;;10.15;84.69
12536;BME280;6334;48.696;2.114;2024-02-21T12:47:50;99809.63;;;10.11;84.90
12536;BME280;6334;48.696;2.114;2024-02-21T12:50:21;99805.67;;;10.17;84.92
12536;BME280;6334;48.696;2.114;2024-02-21T12:52:51;99811.52;;;9.96;86.34
12536;BME280;6334;48.696;2.114;2024-02-21T12:55:22;99802.09;;;10.11;85.56
12536;BME280;6334;48.696;2.114;2024-02-21T12:57:53;99793.94;;;9.88;86.96
12536;BME280;6334;48.696;2.114;2024-02-21T13:00:23;99788.36;;;10.01;87.59
12536;BME280;6334;48.696;2.114;2024-02-21T13:02:54;99782.20;;;9.95;88.37
12536;BME280;6334;48.696;2.114;2024-02-21T13:05:24;99772.16;;;9.93;88.76
12536;BME280;6334;48.696;2.114;2024-02-21T13:07:55;99775.41;;;9.93;89.50
12536;BME280;6334;48.696;2.114;2024-02-21T13:10:25;99768.93;;;9.79;90.23
12536;BME280;6334;48.696;2.114;2024-02-21T13:12:56;99759.16;;;9.64;91.61
12536;BME280;6334;48.696;2.114;2024-02-21T13:15:26;99756.20;;;9.88;90.70
12536;BME280;6334;48.696;2.114;2024-02-21T13:17:57;99745.70;;;9.84;91.77
12536;BME280;6334;48.696;2.114;2024-02-21T13:20:26;99751.48;;;9.60;93.09
12536;BME280;6334;48.696;2.114;2024-02-21T13:22:57;99744.37;;;9.85;92.08
12536;BME280;6334;48.696;2.114;2024-02-21T13:25:27;99735.05;;;10.08;91.56
12536;BME280;6334;48.696;2.114;2024-02-21T13:27:58;99730.38;;;9.79;92.47
12536;BME280;6334;48.696;2.114;2024-02-21T13:30:28;99727.49;;;9.85;92.02
12536;BME280;6334;48.696;2.114;2024-02-21T13:32:58;99726.98;;;9.61;93.59
12536;BME280;6334;48.696;2.114;2024-02-21T13:35:29;99722.99;;;9.54;94.51
12536;BME280;6334;48.696;2.114;2024-02-21T13:38:00;99721.04;;;9.45;94.83
12536;BME280;6334;48.696;2.114;2024-02-21T13:40:30;99706.50;;;9.51;93.96